Time;durP1;ratioP1;P1;durP2;ratioP2;P2;SDS_P1;SDS_P2;PMS_P1;PMS_P2;Temp;Humidity;BMP_temperature;BMP_pressure;BME280_temperature;BME280_humidity;BME280_pressure;Samples;Min_cycle;Max_cycle;Signal;HPM_P1;HPM_P2
2023/02/14 00:01:49;;;;;;;22.17;16.03;;;;;;;1.70;88.68;100582.22;5046612;27;102873;-72
2023/02/14 00:04:19;;;;;;;25.40;16.27;;;;;;;1.48;89.96;100580.66;5047469;27;104135;-71
2023/02/14 00:06:47;;;;;;;23.53;15.07;;;;;;;1.51;90.76;100575.41;5055820;27;103212;-72
2023/02/14 00:09:19;;;;;;;24.50;15.93;;;;;;;1.02;93.08;100574.81;5049639;27;102648;-71
2023/02/14 00:11:47;;;;;;;25.47;17.33;;;;;;;1.14;93.15;100579.97;5048507;27;102671;-72
2023/02/14 00:17:01;;;;;;;28.20;16.53;;;;;;;1.11;93.18;100589.53;5046630;27;103238;-72
2023/02/14 00:19:33;;;;;;;25.73;17.13;;;;;;;1.25;91.77;100586.84;5049663;27;103841;-71
2023/02/14 00:22:01;;;;;;;25.10;16.43;;;;;;;1.08;92.90;100585.19;5048995;27;104011;-71
2023/02/14 00:24:29;;;;;;;24.07;14.83;;;;;;;1.22;92.76;100584.25;5045535;27;103235;-71
2023/02/14 00:26:57;;;;;;;24.83;16.57;;;;;;;0.96;92.92;100584.38;5052420;27;103190;-71
2023/02/14 00:29:27;;;;;;;24.67;16.27;;;;;;;0.98;92.93;100583.47;5055581;27;102551;-72
2023/02/14 00:31:55;;;;;;;25.50;16.23;;;;;;;1.04;93.58;100580.84;5048614;27;103866;-72
2023/02/14 00:34:24;;;;;;;26.43;17.20;;;;;;;0.86;94.18;100593.09;5044988;27;104224;-72
2023/02/14 00:36:54;;;;;;;25.63;16.63;;;;;;;0.88;93.68;100586.13;5044733;27;103154;-75
2023/02/14 00:39:21;;;;;;;26.70;16.00;;;;;;;1.12;94.06;100593.88;5051546;27;103226;-72
2023/02/14 00:41:49;;;;;;;25.27;14.93;;;;;;;1.24;93.29;100585.09;5045998;27;104247;-71
2023/02/14 00:44:17;;;;;;;27.97;17.93;;;;;;;1.28;91.79;100585.09;5046933;27;103976;-71
2023/02/14 00:46:47;;;;;;;24.67;16.13;;;;;;;1.62;91.00;100583.16;5050245;27;103233;-71
2023/02/14 00:49:15;;;;;;;27.83;17.63;;;;;;;1.34;90.08;100576.38;5047454;27;103172;-72
2023/02/14 00:51:43;;;;;;;30.23;16.87;;;;;;;1.22;90.60;100581.66;5056185;27;103010;-71
2023/02/14 00:54:12;;;;;;;25.37;15.57;;;;;;;0.97;91.60;100586.09;5049038;27;104319;-72
2023/02/14 00:56:39;;;;;;;28.53;17.93;;;;;;;0.85;92.75;100592.22;5047692;27;104367;-71
2023/02/14 00:59:09;;;;;;;25.10;16.63;;;;;;;0.43;94.12;100590.59;5045302;27;102681;-72
2023/02/14 01:01:37;;;;;;;26.00;16.43;;;;;;;0.52;94.24;100587.13;5050648;27;103205;-71
2023/02/14 01:04:05;;;;;;;24.90;16.13;;;;;;;0.56;93.90;100597.50;5045266;27;104425;-72
2023/02/14 01:06:33;;;;;;;24.80;16.50;;;;;;;0.50;94.13;100589.75;5048728;27;103498;-72
2023/02/14 01:09:01;;;;;;;24.37;13.83;;;;;;;0.90;94.05;100589.63;5049221;27;102779;-72
2023/02/14 01:11:34;;;;;;;22.13;14.57;;;;;;;0.70;93.64;100591.41;5050322;27;104152;-72
2023/02/14 01:14:02;;;;;;;27.83;17.47;;;;;;;0.57;93.50;100595.78;5044391;27;104406;-71
2023/02/14 01:16:30;;;;;;;27.23;16.73;;;;;;;0.37;94.33;100598.41;5050263;27;103230;-72
2023/02/14 01:18:59;;;;;;;27.37;16.40;;;;;;;0.51;94.94;100594.03;5050891;27;103068;-72
2023/02/14 01:21:28;;;;;;;28.10;17.30;;;;;;;0.85;93.60;100593.94;5050192;27;103326;-72
2023/02/14 01:23:58;;;;;;;27.77;16.20;;;;;;;1.08;92.27;100595.59;5043480;27;103968;-72
2023/02/14 01:26:27;;;;;;;26.37;16.07;;;;;;;1.21;91.83;100579.94;5047217;27;103206;-71
2023/02/14 01:28:56;;;;;;;26.70;16.73;;;;;;;1.12;91.43;100581.69;5051290;27;102841;-71
2023/02/14 01:31:25;;;;;;;28.73;16.90;;;;;;;1.09;91.82;100576.53;5048002;27;104276;-71
2023/02/14 01:33:57;;;;;;;25.57;16.90;;;;;;;1.20;90.49;100579.06;5050202;27;103642;-72
2023/02/14 01:36:27;;;;;;;27.27;16.73;;;;;;;1.02;90.37;100573.94;5054479;27;104188;-72
2023/02/14 01:38:57;;;;;;;25.33;15.40;;;;;;;1.33;90.26;100572.91;5049849;27;102708;-72
2023/02/14 01:41:27;;;;;;;24.97;15.77;;;;;;;1.37;89.32;100573.78;5051659;27;104173;-72
2023/02/14 01:43:59;;;;;;;26.93;16.63;;;;;;;1.11;89.49;100568.69;5045487;27;104138;-72
2023/02/14 01:46:29;;;;;;;24.70;16.03;;;;;;;0.90;91.88;100576.59;5049987;27;104121;-71
2023/02/14 01:49:02;;;;;;;24.30;16.40;;;;;;;0.94;91.35;100575.72;5048489;27;102752;-71
2023/02/14 01:51:33;;;;;;;26.73;17.00;;;;;;;0.81;92.53;100574.91;5054588;27;103791;-72
2023/02/14 01:54:02;;;;;;;27.50;17.23;;;;;;;0.93;91.68;100569.63;5054767;27;104214;-72
2023/02/14 01:56:40;;;;;;;24.40;16.53;;;;;;;1.15;90.51;100570.41;5050416;27;103685;-71
2023/02/14 01:59:18;;;;;;;21.60;15.13;;;;;;;1.34;90.08;100573.78;5052714;27;102987;-71
2023/02/14 02:01:52;;;;;;;28.13;16.90;;;;;;;0.99;89.69;100574.81;5043313;27;103018;-71
2023/02/14 02:04:24;;;;;;;25.40;16.27;;;;;;;1.37;88.80;100572.03;5048000;27;104160;-72
2023/02/14 02:06:56;;;;;;;26.60;16.77;;;;;;;1.07;89.42;100577.38;5048247;27;104449;-71
2023/02/14 02:09:32;;;;;;;24.13;15.43;;;;;;;1.28;89.99;100582.50;5049803;27;102871;-71
2023/02/14 02:12:01;;;;;;;29.07;17.03;;;;;;;1.14;90.19;100579.09;5055682;27;104196;-71
2023/02/14 02:14:30;;;;;;;29.30;18.13;;;;;;;0.99;90.78;100573.94;5040288;27;104187;-72
2023/02/14 02:17:19;;;;;;;25.77;16.33;;;;;;;0.91;91.16;100575.72;5049104;27;103467;-72
2023/02/14 02:20:27;;;;;;;28.23;17.60;;;;;;;0.93;91.86;100574.84;5043995;27;102782;-72
2023/02/14 02:23:21;;;;;;;26.13;17.37;;;;;;;1.06;91.14;100568.72;5035497;27;102913;-72
2023/02/14 02:26:12;;;;;;;28.00;17.67;;;;;;;0.94;92.35;100570.50;5046839;27;103235;-72
2023/02/14 02:29:12;;;;;;;25.37;16.23;;;;;;;1.14;91.32;100571.28;5053859;27;103366;-71
2023/02/14 02:32:08;;;;;;;29.00;17.00;;;;;;;1.24;90.83;100572.94;5048418;27;103942;-71
2023/02/14 02:35:14;;;;;;;27.37;17.60;;;;;;;1.29;89.96;100568.63;5047197;27;104013;-71
2023/02/14 02:37:51;;;;;;;28.10;17.70;;;;;;;1.18;89.66;100567.78;5042060;27;104459;-71
2023/02/14 02:40:33;;;;;;;28.03;17.27;;;;;;;1.05;90.58;100572.19;5043893;27;104165;-71
2023/02/14 02:43:11;;;;;;;26.90;17.13;;;;;;;0.80;92.27;100567.97;5044189;27;102731;-71
2023/02/14 02:48:40;;;;;;;27.27;17.67;;;;;;;0.57;93.15;100570.63;4998606;27;103143;-71
2023/02/14 02:54:09;;;;;;;32.00;18.07;;;;;;;0.79;93.20;100579.22;5041860;27;102825;-71
2023/02/14 02:56:48;;;;;;;28.47;18.20;;;;;;;0.58;94.29;100572.38;5045081;27;104182;-72
2023/02/14 02:59:21;;;;;;;31.50;18.13;;;;;;;0.56;93.60;100576.69;5040479;27;103335;-71
2023/02/14 03:02:01;;;;;;;31.50;18.03;;;;;;;0.68;93.85;100569.72;5043792;27;103993;-71
2023/02/14 03:07:36;;;;;;;33.47;19.60;;;;;;;0.68;92.28;100564.50;4985889;28;103937;-71
2023/02/14 03:10:11;;;;;;;30.07;18.47;;;;;;;0.71;93.20;100567.09;5032172;27;104504;-72
2023/02/14 03:13:17;;;;;;;30.50;19.47;;;;;;;0.55;93.42;100567.16;5041750;27;103166;-71
2023/02/14 03:15:56;;;;;;;32.67;19.13;;;;;;;0.81;93.54;100569.69;5051837;27;102789;-72
2023/02/14 03:18:43;;;;;;;32.67;19.17;;;;;;;0.67;93.83;100581.88;5051319;27;104083;-71
2023/02/14 03:21:24;;;;;;;29.63;18.77;;;;;;;0.71;93.63;100577.53;5052559;27;104281;-71
2023/02/14 03:24:00;;;;;;;32.70;19.60;;;;;;;0.65;93.65;100572.34;5049354;27;104438;-71
2023/02/14 03:26:35;;;;;;;34.97;20.63;;;;;;;0.65;93.08;100574.97;5046929;27;102938;-72
2023/02/14 03:29:12;;;;;;;32.63;19.50;;;;;;;1.03;92.53;100579.16;5061094;27;104065;-71
2023/02/14 03:31:48;;;;;;;33.90;19.13;;;;;;;0.90;91.59;100576.59;5050608;27;103270;-72
2023/02/14 03:34:26;;;;;;;31.47;19.10;;;;;;;0.74;91.76;100582.72;5052256;27;103196;-72
2023/02/14 03:36:58;;;;;;;27.10;17.87;;;;;;;0.61;92.98;100586.22;5053014;27;102517;-72
2023/02/14 03:39:33;;;;;;;28.70;18.23;;;;;;;0.47;94.71;100578.47;5053494;27;102853;-72
2023/02/14 03:42:05;;;;;;;29.60;17.67;;;;;;;0.27;94.19;100583.69;5049092;27;104563;-72
2023/02/14 03:44:35;;;;;;;28.53;16.77;;;;;;;0.42;93.32;100578.44;5049697;27;103177;-73
2023/02/14 03:47:07;;;;;;;29.20;17.20;;;;;;;0.16;93.54;100577.66;5044145;27;102770;-73
2023/02/14 03:49:41;;;;;;;29.10;17.50;;;;;;;0.14;93.89;100573.31;5043159;27;104094;-71
2023/02/14 03:52:12;;;;;;;30.00;17.57;;;;;;;-0.03;93.77;100581.13;5049575;27;103251;-72
2023/02/14 03:54:42;;;;;;;25.53;16.57;;;;;;;-0.18;94.75;100576.78;5059492;27;103183;-73
2023/02/14 03:57:16;;;;;;;28.97;16.67;;;;;;;-0.28;94.96;100574.19;5050634;27;102542;-73
2023/02/14 03:59:44;;;;;;;30.07;17.50;;;;;;;-0.39;96.16;100566.38;5046719;27;103956;-73
2023/02/14 04:02:17;;;;;;;28.73;17.50;;;;;;;-0.45;96.09;100562.91;5056936;27;104176;-73
2023/02/14 04:04:47;;;;;;;24.47;16.33;;;;;;;-0.32;95.58;100555.13;5045091;27;103294;-73
2023/02/14 04:07:19;;;;;;;27.07;16.87;;;;;;;-0.25;94.87;100563.78;5051232;27;102749;-72
2023/02/14 04:09:51;;;;;;;24.03;15.80;;;;;;;-0.05;93.84;100567.25;5054927;27;103952;-72
2023/02/14 04:12:20;;;;;;;25.07;16.23;;;;;;;0.11;93.14;100563.78;5048143;27;103909;-72
2023/02/14 04:15:02;;;;;;;25.27;16.23;;;;;;;0.18;91.83;100565.50;5041955;27;103380;-73
2023/02/14 04:20:15;;;;;;;20.40;12.67;;;;;;;0.48;91.00;100555.03;5030431;27;102773;-72
2023/02/14 04:22:46;;;;;;;22.43;15.03;;;;;;;0.55;90.19;100567.16;5028843;27;104271;-72
2023/02/14 04:25:15;;;;;;;26.47;16.53;;;;;;;0.42;89.15;100555.03;5045686;27;103263;-71
2023/02/14 04:27:43;;;;;;;25.33;15.50;;;;;;;0.26;90.27;100568.09;5047928;27;102934;-72
2023/02/14 04:30:13;;;;;;;27.17;16.17;;;;;;;0.07;90.06;100572.44;5035834;27;103543;-72
2023/02/14 04:32:41;;;;;;;22.57;13.67;;;;;;;0.39;90.22;100562.00;5031669;27;103392;-72
2023/02/14 04:35:09;;;;;;;23.20;14.33;;;;;;;0.55;89.55;100561.09;5052725;27;104364;-72
2023/02/14 04:37:37;;;;;;;23.47;15.00;;;;;;;0.69;88.86;100558.44;5030740;27;103882;-72
2023/02/14 04:40:06;;;;;;;23.43;13.90;;;;;;;0.75;88.38;100558.44;5013262;27;102848;-71
2023/02/14 04:42:35;;;;;;;25.50;15.43;;;;;;;0.55;87.24;100554.16;5024307;27;103447;-71
2023/02/14 04:45:03;;;;;;;25.50;16.83;;;;;;;0.47;87.62;100553.31;5021401;27;103392;-70
2023/02/14 04:47:31;;;;;;;22.97;15.90;;;;;;;0.54;88.08;100549.81;5018527;27;102801;-71
2023/02/14 04:49:59;;;;;;;26.70;17.30;;;;;;;0.06;89.69;100562.06;5020898;27;104225;-72
2023/02/14 04:52:27;;;;;;;25.43;17.17;;;;;;;-0.16;91.28;100559.47;5018306;27;103955;-71
2023/02/14 04:54:54;;;;;;;27.93;16.47;;;;;;;-0.16;90.74;100563.78;5017101;27;103255;-71
2023/02/14 04:57:22;;;;;;;26.13;15.97;;;;;;;-0.31;91.97;100559.44;5021950;27;103952;-71
2023/02/14 04:59:51;;;;;;;25.67;16.33;;;;;;;-0.34;92.06;100559.47;5014239;27;103141;-71
2023/02/14 05:02:19;;;;;;;25.70;15.93;;;;;;;-0.60;93.25;100562.03;5026979;27;103783;-71
2023/02/14 05:04:47;;;;;;;24.10;15.67;;;;;;;-0.60;94.07;100555.97;5050832;27;103277;-71
2023/02/14 05:07:16;;;;;;;27.17;16.73;;;;;;;-0.52;93.56;100550.78;5039480;27;102752;-70
2023/02/14 05:09:44;;;;;;;24.87;16.50;;;;;;;-0.12;93.51;100555.13;5045909;27;104472;-71
2023/02/14 05:12:12;;;;;;;23.93;15.97;;;;;;;-0.09;92.32;100555.13;5037609;27;103291;-70
2023/02/14 05:14:39;;;;;;;24.87;16.00;;;;;;;-0.18;91.25;100556.00;5043140;27;103237;-69
2023/02/14 05:17:09;;;;;;;27.73;17.23;;;;;;;-0.31;91.64;100553.41;5040555;27;103080;-70
2023/02/14 05:19:39;;;;;;;26.03;17.30;;;;;;;-0.08;91.39;100557.72;5037585;27;102777;-70
2023/02/14 05:22:06;;;;;;;23.77;16.27;;;;;;;0.06;90.02;100557.72;5027422;27;103229;-69
2023/02/14 05:24:34;;;;;;;27.13;16.20;;;;;;;0.43;88.08;100551.59;5041130;27;103248;-70
2023/02/14 05:27:02;;;;;;;25.80;17.20;;;;;;;0.51;86.97;100554.16;5031354;27;102860;-71
2023/02/14 05:29:30;;;;;;;22.93;15.17;;;;;;;0.01;88.67;100554.25;5024748;27;104254;-70
2023/02/14 05:31:58;;;;;;;27.03;15.93;;;;;;;-0.24;88.96;100561.19;5030115;27;103248;-70
2023/02/14 05:34:30;;;;;;;25.57;15.50;;;;;;;-0.25;90.30;100548.19;5030435;27;103191;-70
2023/02/14 05:36:57;;;;;;;27.43;16.53;;;;;;;-0.43;90.96;100553.38;5031615;27;103529;-69
2023/02/14 05:39:25;;;;;;;23.70;14.47;;;;;;;-0.09;90.84;100555.13;5030717;27;104027;-71
2023/02/14 05:41:53;;;;;;;23.30;14.67;;;;;;;0.10;89.62;100551.66;5025954;27;104127;-70
2023/02/14 05:44:21;;;;;;;24.77;16.63;;;;;;;-0.21;89.31;100561.19;5023987;27;104174;-69
2023/02/14 05:46:49;;;;;;;25.20;16.63;;;;;;;-0.11;89.24;100560.31;5043504;27;102851;-69
2023/02/14 05:49:17;;;;;;;25.63;16.43;;;;;;;-0.47;90.34;100556.81;5038020;27;102729;-69
2023/02/14 05:51:49;;;;;;;22.23;14.97;;;;;;;-0.47;92.07;100557.69;5017193;27;103795;-70
2023/02/14 05:54:17;;;;;;;25.47;16.20;;;;;;;-0.77;92.57;100562.84;5015887;27;103178;-71
2023/02/14 05:56:56;;;;;;;22.00;14.77;;;;;;;-0.41;92.50;100562.03;5003081;27;102767;-71
2023/02/14 05:59:35;;;;;;;23.90;15.53;;;;;;;-0.32;91.86;100569.84;5024984;27;103158;-70
2023/02/14 06:02:16;;;;;;;24.20;16.03;;;;;;;-0.18;89.80;100570.72;5020301;27;103211;-71
2023/02/14 06:04:53;;;;;;;23.43;15.43;;;;;;;-0.08;89.22;100575.03;5026307;27;103175;-71
2023/02/14 06:07:35;;;;;;;22.93;15.57;;;;;;;-0.22;90.33;100574.16;5003795;27;102705;-70
2023/02/14 06:10:09;;;;;;;24.87;15.77;;;;;;;-0.22;90.25;100571.56;5007969;27;103315;-70
2023/02/14 06:12:41;;;;;;;25.00;15.47;;;;;;;-0.23;90.78;100575.06;5000541;27;103131;-70
2023/02/14 06:15:14;;;;;;;21.80;15.20;;;;;;;-0.26;90.02;100575.91;5017747;27;103836;-71
2023/02/14 06:17:50;;;;;;;23.80;15.13;;;;;;;-0.32;91.61;100580.22;5038298;27;103195;-71
2023/02/14 06:20:22;;;;;;;22.90;15.47;;;;;;;-0.30;90.29;100576.78;5034094;27;102986;-72
2023/02/14 06:22:55;;;;;;;21.30;14.97;;;;;;;-0.21;89.23;100575.91;5022040;27;103881;-70
2023/02/14 06:25:26;;;;;;;23.90;15.17;;;;;;;-0.21;89.09;100575.91;5025118;27;103493;-71
2023/02/14 06:28:00;;;;;;;19.93;14.30;;;;;;;-0.05;88.56;100585.44;5041325;27;103131;-70
2023/02/14 06:30:31;;;;;;;25.00;15.60;;;;;;;-0.14;88.54;100585.47;5030428;27;103151;-70
2023/02/14 06:33:02;;;;;;;24.73;15.30;;;;;;;-0.29;88.84;100577.66;5036273;27;103425;-70
2023/02/14 06:35:32;;;;;;;20.00;12.77;;;;;;;-0.18;89.00;100581.13;5037327;27;104469;-70
2023/02/14 06:38:01;;;;;;;21.77;14.90;;;;;;;-0.20;88.64;100582.84;5040331;27;102741;-69
2023/02/14 06:40:29;;;;;;;22.97;14.17;;;;;;;-0.29;88.40;100578.50;5042950;27;103751;-68
2023/02/14 06:42:57;;;;;;;22.00;13.97;;;;;;;-0.19;88.80;100587.16;5036420;27;103232;-69
2023/02/14 06:45:24;;;;;;;22.63;15.13;;;;;;;0.07;87.97;100598.44;5050467;27;103320;-67
2023/02/14 06:47:54;;;;;;;18.30;11.77;;;;;;;0.26;87.75;100589.75;5039028;27;102648;-68
2023/02/14 06:50:22;;;;;;;20.77;14.63;;;;;;;-0.09;86.57;100591.50;5043596;27;104001;-68
2023/02/14 06:52:50;;;;;;;20.07;14.07;;;;;;;-0.16;88.45;100601.03;5029330;27;103400;-68
2023/02/14 06:55:19;;;;;;;20.50;13.47;;;;;;;0.07;88.13;100590.63;5035711;27;103329;-68
2023/02/14 06:57:49;;;;;;;24.33;14.60;;;;;;;0.04;87.56;100592.38;5039130;27;102911;-68
2023/02/14 07:00:18;;;;;;;21.00;14.60;;;;;;;0.08;87.94;100591.50;5031091;27;103675;-68
2023/02/14 07:02:45;;;;;;;19.03;12.73;;;;;;;0.30;86.97;100591.50;5028011;27;103970;-68
2023/02/14 07:05:15;;;;;;;19.73;12.77;;;;;;;0.28;86.80;100588.00;5024415;27;103614;-68
2023/02/14 07:07:42;;;;;;;19.17;12.90;;;;;;;0.50;86.81;100586.25;5025619;27;103118;-68
2023/02/14 07:10:11;;;;;;;20.00;13.73;;;;;;;0.29;86.58;100588.88;5025052;27;103871;-68
2023/02/14 07:12:40;;;;;;;23.50;14.73;;;;;;;0.02;87.99;100587.19;5023970;27;104427;-68
2023/02/14 07:15:09;;;;;;;19.67;13.97;;;;;;;-0.36;89.62;100587.16;5023205;27;103169;-68
2023/02/14 07:17:39;;;;;;;19.73;13.80;;;;;;;-0.43;90.97;100589.75;5041279;27;102960;-68
2023/02/14 07:20:10;;;;;;;23.87;14.43;;;;;;;-0.20;90.35;100577.66;5037865;27;103046;-68
2023/02/14 07:22:38;;;;;;;22.77;14.77;;;;;;;0.01;90.45;100580.25;5033518;27;103315;-68
2023/02/14 07:25:07;;;;;;;20.80;14.73;;;;;;;0.06;89.90;100583.69;5040652;27;103835;-69
2023/02/14 07:27:35;;;;;;;26.20;16.60;;;;;;;0.07;89.94;100587.16;5035553;27;103197;-68
2023/02/14 07:30:06;;;;;;;22.67;15.13;;;;;;;0.46;89.24;100577.59;5034341;27;102857;-69
2023/02/14 07:32:34;;;;;;;25.40;15.83;;;;;;;0.45;88.92;100581.06;5035902;27;104238;-68
2023/02/14 07:35:02;;;;;;;22.90;15.77;;;;;;;0.87;87.70;100579.22;5034690;27;104526;-68
2023/02/14 07:37:32;;;;;;;27.00;17.13;;;;;;;1.18;87.15;100575.59;5040251;27;102799;-69
2023/02/14 07:39:59;;;;;;;23.37;15.93;;;;;;;0.94;87.05;100580.91;5027583;27;103890;-69
2023/02/14 07:42:28;;;;;;;23.43;15.43;;;;;;;1.36;87.53;100570.28;5039916;27;103276;-69
2023/02/14 07:44:56;;;;;;;24.33;16.13;;;;;;;2.10;86.21;100576.72;5038508;27;103291;-68
2023/02/14 07:47:25;;;;;;;27.17;17.27;;;;;;;2.65;83.06;100575.28;5034080;27;102841;-70
2023/02/14 07:49:53;;;;;;;21.00;13.97;;;;;;;2.84;82.28;100568.97;5040604;27;104395;-69
2023/02/14 07:52:20;;;;;;;20.50;14.07;;;;;;;3.36;80.89;100569.19;5043043;27;104154;-69
2023/02/14 07:54:48;;;;;;;21.33;14.03;;;;;;;3.53;78.82;100568.94;5033928;27;103237;-69
2023/02/14 07:57:16;;;;;;;22.07;14.70;;;;;;;3.86;77.63;100571.03;5034178;27;102803;-68
2023/02/14 07:59:46;;;;;;;20.30;13.20;;;;;;;3.73;77.14;100564.28;5038688;27;102758;-69
2023/02/14 08:02:14;;;;;;;20.60;14.50;;;;;;;4.22;76.52;100563.47;5023378;27;104404;-68
2023/02/14 08:04:43;;;;;;;27.67;17.27;;;;;;;3.90;76.14;100564.88;5037756;27;103349;-69
2023/02/14 08:07:11;;;;;;;21.40;13.93;;;;;;;4.34;76.62;100564.13;5039672;27;103368;-69
2023/02/14 08:09:39;;;;;;;21.97;15.43;;;;;;;3.96;76.55;100562.16;5041203;27;102645;-69
2023/02/14 08:14:52;;;;;;;21.57;15.03;;;;;;;4.23;75.03;100559.97;5044899;27;103306;-68
2023/02/14 08:17:19;;;;;;;20.30;14.33;;;;;;;4.37;75.19;100557.97;5045924;27;102735;-68
2023/02/14 08:19:49;;;;;;;24.70;14.63;;;;;;;4.06;76.22;100557.66;5046198;27;102665;-69
2023/02/14 08:22:18;;;;;;;25.53;14.33;;;;;;;4.38;76.52;100554.47;5041615;27;104099;-69
2023/02/14 08:24:45;;;;;;;22.10;14.67;;;;;;;4.02;76.77;100555.97;5032825;27;103174;-69
2023/02/14 08:27:14;;;;;;;21.60;15.43;;;;;;;4.47;78.01;100559.53;5049582;27;102737;-69
2023/02/14 08:29:42;;;;;;;21.23;13.93;;;;;;;3.32;79.61;100562.25;5042286;27;102822;-69
2023/02/14 08:32:09;;;;;;;24.47;16.00;;;;;;;2.56;82.39;100562.34;5046594;27;103338;-69
2023/02/14 08:34:37;;;;;;;20.43;14.60;;;;;;;3.45;81.98;100557.75;5043807;27;103273;-69
2023/02/14 08:37:07;;;;;;;23.13;15.87;;;;;;;4.12;81.09;100559.28;5039256;27;102737;-69
2023/02/14 08:39:34;;;;;;;22.23;15.30;;;;;;;4.89;77.17;100553.47;5044474;27;103770;-69
2023/02/14 08:42:02;;;;;;;20.80;14.93;;;;;;;5.72;74.88;100548.16;5042306;27;103827;-69
2023/02/14 08:44:30;;;;;;;25.97;16.40;;;;;;;5.50;73.94;100557.41;5033426;27;103406;-69
2023/02/14 08:46:58;;;;;;;25.93;17.60;;;;;;;5.62;74.13;100551.88;5042919;27;102854;-69
2023/02/14 08:49:26;;;;;;;21.27;15.97;;;;;;;5.28;72.86;100542.13;5026410;27;104454;-69
2023/02/14 08:51:55;;;;;;;26.13;15.37;;;;;;;4.78;73.62;100544.97;5043659;27;104245;-66
2023/02/14 08:54:24;;;;;;;23.70;16.20;;;;;;;5.82;73.32;100541.78;5048869;27;103273;-67
2023/02/14 08:56:52;;;;;;;21.43;15.70;;;;;;;4.71;73.32;100548.59;5048579;27;102993;-67
2023/02/14 08:59:20;;;;;;;26.60;16.33;;;;;;;4.23;78.90;100549.50;5053296;27;102732;-67
2023/02/14 09:01:48;;;;;;;20.37;16.13;;;;;;;4.46;76.25;100552.59;5026541;27;103494;-68
2023/02/14 09:04:17;;;;;;;21.67;15.97;;;;;;;5.44;72.52;100539.19;5036346;27;103169;-68
2023/02/14 09:06:47;;;;;;;23.33;17.57;;;;;;;3.88;77.84;100543.13;5039245;27;102698;-68
2023/02/14 09:09:16;;;;;;;21.50;16.07;;;;;;;3.77;78.21;100549.41;5045025;27;103004;-68
2023/02/14 09:11:45;;;;;;;19.93;15.10;;;;;;;5.45;75.40;100544.38;5041276;27;103234;-68
2023/02/14 09:14:13;;;;;;;23.03;16.50;;;;;;;4.04;77.87;100536.72;5049494;27;104059;-68
2023/02/14 09:16:41;;;;;;;25.10;16.80;;;;;;;4.48;76.92;100535.09;5039529;27;103009;-67
2023/02/14 09:19:11;;;;;;;23.70;16.20;;;;;;;4.95;74.62;100537.63;5037646;27;103594;-66
2023/02/14 09:21:42;;;;;;;24.63;17.13;;;;;;;5.73;73.88;100528.88;5033424;27;103306;-66
2023/02/14 09:24:10;;;;;;;22.00;16.00;;;;;;;6.43;70.56;100526.22;5026272;27;104112;-67
2023/02/14 09:26:39;;;;;;;17.83;13.33;;;;;;;6.97;70.40;100523.81;5044733;27;102652;-66
2023/02/14 09:29:10;;;;;;;21.53;15.53;;;;;;;7.03;66.25;100514.03;5042659;27;102688;-66
2023/02/14 09:31:38;;;;;;;16.03;12.90;;;;;;;7.53;67.98;100516.84;5048131;27;104134;-68
2023/02/14 09:34:06;;;;;;;22.53;16.13;;;;;;;7.64;66.94;100518.28;5056529;27;104381;-66
2023/02/14 09:39:22;;;;;;;21.33;15.53;;;;;;;7.82;65.58;100505.41;5053012;27;103788;-68
2023/02/14 09:42:06;;;;;;;21.67;16.23;;;;;;;6.18;67.77;100506.78;5039853;27;104103;-67
2023/02/14 09:44:39;;;;;;;18.33;14.90;;;;;;;7.28;68.94;100513.25;5048311;27;103359;-67
2023/02/14 09:47:23;;;;;;;22.40;15.33;;;;;;;8.32;63.96;100503.72;5037965;27;102638;-66
2023/02/14 09:49:53;;;;;;;18.27;15.43;;;;;;;7.36;66.80;100506.00;5048959;27;103827;-67
2023/02/14 09:52:26;;;;;;;20.80;15.43;;;;;;;7.59;66.71;100500.00;5054459;27;104159;-67
2023/02/14 09:54:59;;;;;;;19.30;14.30;;;;;;;8.18;64.71;100495.41;5041951;27;103184;-68
2023/02/14 09:57:38;;;;;;;23.20;16.37;;;;;;;7.80;64.16;100495.84;5040355;27;104488;-68
2023/02/14 10:00:20;;;;;;;22.53;17.00;;;;;;;7.47;67.46;100489.88;5051671;27;102705;-68
2023/02/14 10:02:58;;;;;;;20.03;16.23;;;;;;;7.53;65.71;100490.56;5042975;27;103772;-68
2023/02/14 10:05:29;;;;;;;22.80;17.03;;;;;;;6.72;68.92;100490.41;5056299;27;103218;-68
2023/02/14 10:08:03;;;;;;;19.77;15.50;;;;;;;8.05;64.75;100483.59;5055774;27;102773;-68
2023/02/14 10:10:38;;;;;;;20.23;14.97;;;;;;;8.33;63.97;100480.88;5052457;27;104282;-68
2023/02/14 10:13:13;;;;;;;21.80;16.43;;;;;;;8.37;64.29;100480.72;5051825;27;104115;-68
2023/02/14 10:15:45;;;;;;;21.00;16.57;;;;;;;7.33;64.88;100490.31;5045408;27;103492;-69
2023/02/14 10:18:17;;;;;;;18.20;14.10;;;;;;;7.90;68.16;100484.09;5060054;27;102529;-68
2023/02/14 10:20:48;;;;;;;23.40;17.03;;;;;;;8.15;64.40;100482.34;5046956;27;104100;-68
2023/02/14 10:23:30;;;;;;;19.60;15.97;;;;;;;7.69;65.69;100479.53;5059188;27;104152;-68
2023/02/14 10:26:01;;;;;;;21.13;14.93;;;;;;;8.51;63.85;100478.44;5050492;27;103309;-68
2023/02/14 10:28:34;;;;;;;17.60;15.00;;;;;;;8.76;62.75;100461.75;5058327;27;102745;-68
2023/02/14 10:31:19;;;;;;;19.10;15.10;;;;;;;8.16;62.95;100461.25;5050380;27;103891;-68
2023/02/14 10:33:54;;;;;;;20.87;16.00;;;;;;;8.29;61.94;100466.97;5045787;27;103654;-68
2023/02/14 10:36:55;;;;;;;20.53;15.37;;;;;;;8.54;62.87;100457.25;5048905;27;104237;-68
2023/02/14 10:39:37;;;;;;;19.17;14.73;;;;;;;9.03;63.76;100455.44;5060813;27;102728;-67
2023/02/14 10:42:15;;;;;;;19.10;14.73;;;;;;;8.29;65.13;100456.41;5058997;27;103506;-66
2023/02/14 10:44:50;;;;;;;21.20;15.43;;;;;;;8.08;62.63;100446.63;5051551;27;104073;-68
2023/02/14 10:47:33;;;;;;;18.20;14.67;;;;;;;8.49;62.62;100451.31;5055512;27;103181;-68
2023/02/14 10:50:10;;;;;;;17.33;14.50;;;;;;;8.64;62.28;100442.84;5053657;27;102952;-68
2023/02/14 10:52:48;;;;;;;20.50;15.00;;;;;;;8.52;63.40;100442.44;5051619;27;104120;-67
2023/02/14 10:55:22;;;;;;;18.30;14.07;;;;;;;8.94;62.78;100439.97;5057585;27;103424;-67
2023/02/14 10:58:03;;;;;;;17.57;13.57;;;;;;;9.74;60.62;100440.22;5050919;27;103742;-68
2023/02/14 11:00:35;;;;;;;18.17;13.37;;;;;;;9.83;59.05;100434.56;5056019;27;102692;-67
2023/02/14 11:03:08;;;;;;;18.50;14.37;;;;;;;9.44;58.73;100436.19;5053805;27;103803;-67
2023/02/14 11:05:42;;;;;;;21.53;14.17;;;;;;;9.18;60.29;100433.72;5048961;27;104244;-67
2023/02/14 11:08:23;;;;;;;16.83;14.50;;;;;;;9.45;59.86;100427.38;5052568;27;103224;-68
2023/02/14 11:10:52;;;;;;;16.80;13.87;;;;;;;9.75;59.09;100420.81;5052857;27;102693;-67
2023/02/14 11:13:28;;;;;;;17.87;14.53;;;;;;;9.96;57.43;100418.19;5049140;27;102763;-67
2023/02/14 11:16:01;;;;;;;16.63;14.60;;;;;;;10.44;57.43;100416.09;5055998;27;104067;-68
2023/02/14 11:18:34;;;;;;;15.60;13.17;;;;;;;10.29;58.13;100411.47;5037415;27;103165;-68
2023/02/14 11:21:05;;;;;;;16.13;13.87;;;;;;;10.40;56.50;100399.50;5036367;27;103039;-68
2023/02/14 11:23:34;;;;;;;16.97;14.10;;;;;;;10.28;56.72;100407.97;5045294;27;104123;-68
2023/02/14 11:26:08;;;;;;;17.37;13.47;;;;;;;10.25;58.24;100401.97;5040780;27;104060;-68
2023/02/14 11:28:43;;;;;;;17.40;14.97;;;;;;;9.50;58.83;100399.00;5037540;27;103189;-68
2023/02/14 11:31:11;;;;;;;18.57;14.80;;;;;;;9.59;61.01;100401.28;5047154;27;103124;-67
2023/02/14 11:33:44;;;;;;;16.90;13.60;;;;;;;10.58;57.98;100395.19;5048486;27;104001;-67
2023/02/14 11:36:16;;;;;;;16.67;14.10;;;;;;;10.82;56.33;100387.88;5049647;27;103850;-67
2023/02/14 11:38:45;;;;;;;16.20;12.80;;;;;;;11.53;55.50;100384.44;5044414;27;103200;-68
2023/02/14 11:41:15;;;;;;;14.90;11.70;;;;;;;12.13;54.31;100370.72;5050544;27;103549;-68
2023/02/14 11:43:48;;;;;;;19.63;15.87;;;;;;;10.03;58.94;100382.66;5053392;27;104109;-68
2023/02/14 11:46:26;;;;;;;19.23;15.43;;;;;;;9.98;58.22;100376.72;5040249;27;105200;-69
2023/02/14 11:49:01;;;;;;;22.43;15.17;;;;;;;10.52;58.18;100379.59;5048719;27;103174;-68